sensor_id;sensor_type;location;lat;lon;timestamp;temperature;humidity
8928;DHT22;4499;48.304;11.902;2022-12-18T00:00:10;-6.10;99.90
8928;DHT22;4499;48.304;11.902;2022-12-18T00:02:41;-6.10;99.90
8928;DHT22;4499;48.304;11.902;2022-12-18T00:05:10;-6.10;99.90
8928;DHT22;4499;48.304;11.902;2022-12-18T00:07:40;-6.10;99.90
8928;DHT22;4499;48.304;11.902;2022-12-18T00:10:08;-6.10;99.90
8928;DHT22;4499;48.304;11.902;2022-12-18T00:12:41;-6.20;99.90
8928;DHT22;4499;48.304;11.902;2022-12-18T00:15:13;-6.20;99.90
8928;DHT22;4499;48.304;11.902;2022-12-18T00:17:41;-6.20;99.90
8928;DHT22;4499;48.304;11.902;2022-12-18T00:20:10;-6.20;99.90
8928;DHT22;4499;48.304;11.902;2022-12-18T00:22:40;-6.20;99.90
8928;DHT22;4499;48.304;11.902;2022-12-18T00:25:08;-6.20;99.90
8928;DHT22;4499;48.304;11.902;2022-12-18T00:27:36;-6.20;99.90
8928;DHT22;4499;48.304;11.902;2022-12-18T00:30:05;-6.20;99.90
8928;DHT22;4499;48.304;11.902;2022-12-18T00:32:33;-6.20;99.90
8928;DHT22;4499;48.304;11.902;2022-12-18T00:35:01;-6.10;99.90
8928;DHT22;4499;48.304;11.902;2022-12-18T00:37:30;-6.10;99.90
8928;DHT22;4499;48.304;11.902;2022-12-18T00:39:59;-6.20;99.90
8928;DHT22;4499;48.304;11.902;2022-12-18T00:42:29;-6.10;99.90
8928;DHT22;4499;48.304;11.902;2022-12-18T00:45:31;-6.10;99.90
8928;DHT22;4499;48.304;11.902;2022-12-18T00:47:59;-6.00;99.90
8928;DHT22;4499;48.304;11.902;2022-12-18T00:50:28;-6.00;99.90
8928;DHT22;4499;48.304;11.902;2022-12-18T00:52:56;-6.00;99.90
8928;DHT22;4499;48.304;11.902;2022-12-18T00:55:25;-6.00;99.90
8928;DHT22;4499;48.304;11.902;2022-12-18T00:57:53;-5.90;99.90
8928;DHT22;4499;48.304;11.902;2022-12-18T01:00:21;-5.90;99.90
8928;DHT22;4499;48.304;11.902;2022-12-18T01:02:50;-5.90;99.90
8928;DHT22;4499;48.304;11.902;2022-12-18T01:05:18;-5.80;99.90
8928;DHT22;4499;48.304;11.902;2022-12-18T01:07:46;-5.80;99.90
8928;DHT22;4499;48.304;11.902;2022-12-18T01:10:16;-5.80;99.90
8928;DHT22;4499;48.304;11.902;2022-12-18T01:12:46;-5.80;99.90
8928;DHT22;4499;48.304;11.902;2022-12-18T01:15:15;-5.80;99.90
8928;DHT22;4499;48.304;11.902;2022-12-18T01:17:43;-5.80;99.90
8928;DHT22;4499;48.304;11.902;2022-12-18T01:20:13;-5.60;99.90
8928;DHT22;4499;48.304;11.902;2022-12-18T01:22:41;-5.60;99.90
8928;DHT22;4499;48.304;11.902;2022-12-18T01:25:09;-5.70;99.90
8928;DHT22;4499;48.304;11.902;2022-12-18T01:27:38;-5.70;99.90
8928;DHT22;4499;48.304;11.902;2022-12-18T01:30:08;-5.70;99.90
8928;DHT22;4499;48.304;11.902;2022-12-18T01:32:37;-5.60;99.90
8928;DHT22;4499;48.304;11.902;2022-12-18T01:35:06;-5.60;99.90
8928;DHT22;4499;48.304;11.902;2022-12-18T01:37:34;-5.50;99.90
8928;DHT22;4499;48.304;11.902;2022-12-18T01:40:03;-5.50;99.90
8928;DHT22;4499;48.304;11.902;2022-12-18T01:42:31;-5.50;99.90
8928;DHT22;4499;48.304;11.902;2022-12-18T01:45:08;-5.50;99.90
8928;DHT22;4499;48.304;11.902;2022-12-18T01:47:51;-5.50;99.90
8928;DHT22;4499;48.304;11.902;2022-12-18T01:50:23;-5.50;99.90
8928;DHT22;4499;48.304;11.902;2022-12-18T01:52:54;-5.50;99.90
8928;DHT22;4499;48.304;11.902;2022-12-18T01:55:25;-5.50;99.90
8928;DHT22;4499;48.304;11.902;2022-12-18T01:57:58;-5.40;99.90
8928;DHT22;4499;48.304;11.902;2022-12-18T02:00:29;-5.40;99.90
8928;DHT22;4499;48.304;11.902;2022-12-18T02:02:57;-5.40;99.90
8928;DHT22;4499;48.304;11.902;2022-12-18T02:05:33;-5.50;99.90
8928;DHT22;4499;48.304;11.902;2022-12-18T02:08:08;-5.50;99.90
8928;DHT22;4499;48.304;11.902;2022-12-18T02:10:44;-5.40;99.90
8928;DHT22;4499;48.304;11.902;2022-12-18T02:13:20;-5.50;99.90
8928;DHT22;4499;48.304;11.902;2022-12-18T02:15:58;-5.50;99.90
8928;DHT22;4499;48.304;11.902;2022-12-18T02:18:31;-5.40;99.90
8928;DHT22;4499;48.304;11.902;2022-12-18T02:21:08;-5.50;99.90
8928;DHT22;4499;48.304;11.902;2022-12-18T02:23:47;-5.40;99.90
8928;DHT22;4499;48.304;11.902;2022-12-18T02:26:21;-5.40;99.90
8928;DHT22;4499;48.304;11.902;2022-12-18T02:28:53;-5.40;99.90
8928;DHT22;4499;48.304;11.902;2022-12-18T02:31:28;-5.10;99.90
8928;DHT22;4499;48.304;11.902;2022-12-18T02:34:01;-5.40;99.90
8928;DHT22;4499;48.304;11.902;2022-12-18T02:36:32;-5.40;99.90
8928;DHT22;4499;48.304;11.902;2022-12-18T02:39:02;-5.30;99.90
8928;DHT22;4499;48.304;11.902;2022-12-18T02:41:37;-5.30;99.90
8928;DHT22;4499;48.304;11.902;2022-12-18T02:44:09;-5.40;99.90
8928;DHT22;4499;48.304;11.902;2022-12-18T02:46:40;-5.30;99.90
8928;DHT22;4499;48.304;11.902;2022-12-18T02:49:18;-5.30;99.90
8928;DHT22;4499;48.304;11.902;2022-12-18T02:51:53;-5.40;99.90
8928;DHT22;4499;48.304;11.902;2022-12-18T02:54:38;-5.30;99.90
8928;DHT22;4499;48.304;11.902;2022-12-18T02:57:16;-5.30;99.90
8928;DHT22;4499;48.304;11.902;2022-12-18T02:59:52;-5.30;99.90
8928;DHT22;4499;48.304;11.902;2022-12-18T03:02:28;-5.20;99.90
8928;DHT22;4499;48.304;11.902;2022-12-18T03:05:04;-5.20;99.90
8928;DHT22;4499;48.304;11.902;2022-12-18T03:07:37;-5.20;99.90
8928;DHT22;4499;48.304;11.902;2022-12-18T03:10:09;-5.20;99.90
8928;DHT22;4499;48.304;11.902;2022-12-18T03:12:44;-5.10;99.90
8928;DHT22;4499;48.304;11.902;2022-12-18T03:15:18;-5.20;99.90
8928;DHT22;4499;48.304;11.902;2022-12-18T03:17:52;-5.20;99.90
8928;DHT22;4499;48.304;11.902;2022-12-18T03:20:24;-5.20;99.90
8928;DHT22;4499;48.304;11.902;2022-12-18T03:22:57;-5.20;99.90
8928;DHT22;4499;48.304;11.902;2022-12-18T03:25:31;-5.20;99.90
8928;DHT22;4499;48.304;11.902;2022-12-18T03:28:03;-5.10;99.90
8928;DHT22;4499;48.304;11.902;2022-12-18T03:30:37;-5.20;99.90
8928;DHT22;4499;48.304;11.902;2022-12-18T03:33:09;-5.10;99.90
8928;DHT22;4499;48.304;11.902;2022-12-18T03:35:40;-5.10;99.90
8928;DHT22;4499;48.304;11.902;2022-12-18T03:38:09;-5.20;99.90
8928;DHT22;4499;48.304;11.902;2022-12-18T03:40:47;-5.20;99.90
8928;DHT22;4499;48.304;11.902;2022-12-18T03:43:29;-5.20;99.90
8928;DHT22;4499;48.304;11.902;2022-12-18T03:46:04;-5.20;99.90
8928;DHT22;4499;48.304;11.902;2022-12-18T03:48:38;-5.20;99.90
8928;DHT22;4499;48.304;11.902;2022-12-18T03:51:12;-5.30;99.90
8928;DHT22;4499;48.304;11.902;2022-12-18T03:53:49;-5.30;99.90
8928;DHT22;4499;48.304;11.902;2022-12-18T03:56:20;-5.30;99.90
8928;DHT22;4499;48.304;11.902;2022-12-18T03:58:52;-5.30;99.90
8928;DHT22;4499;48.304;11.902;2022-12-18T04:01:28;-5.30;99.90
8928;DHT22;4499;48.304;11.902;2022-12-18T04:04:00;-5.30;99.90
8928;DHT22;4499;48.304;11.902;2022-12-18T04:06:30;-5.30;99.90
8928;DHT22;4499;48.304;11.902;2022-12-18T04:08:58;-5.30;99.90
8928;DHT22;4499;48.304;11.902;2022-12-18T04:11:27;-5.40;99.90
8928;DHT22;4499;48.304;11.902;2022-12-18T04:13:57;-5.40;99.90
8928;DHT22;4499;48.304;11.902;2022-12-18T04:16:32;-5.50;99.90
8928;DHT22;4499;48.304;11.902;2022-12-18T04:19:00;-5.50;99.90
8928;DHT22;4499;48.304;11.902;2022-12-18T04:21:28;-5.50;99.90
8928;DHT22;4499;48.304;11.902;2022-12-18T04:23:56;-5.50;99.90
8928;DHT22;4499;48.304;11.902;2022-12-18T04:26:24;-5.50;99.90
8928;DHT22;4499;48.304;11.902;2022-12-18T04:28:57;-5.40;99.90
8928;DHT22;4499;48.304;11.902;2022-12-18T04:31:25;-5.50;99.90
8928;DHT22;4499;48.304;11.902;2022-12-18T04:33:53;-5.50;99.90
8928;DHT22;4499;48.304;11.902;2022-12-18T04:36:21;-5.50;99.90
8928;DHT22;4499;48.304;11.902;2022-12-18T04:38:52;-5.60;99.90
8928;DHT22;4499;48.304;11.902;2022-12-18T04:41:20;-5.60;99.90
8928;DHT22;4499;48.304;11.902;2022-12-18T04:43:49;-5.60;99.90
8928;DHT22;4499;48.304;11.902;2022-12-18T04:46:18;-5.60;99.90
8928;DHT22;4499;48.304;11.902;2022-12-18T04:48:46;-5.60;99.90
8928;DHT22;4499;48.304;11.902;2022-12-18T04:51:15;-5.60;99.90
8928;DHT22;4499;48.304;11.902;2022-12-18T04:53:51;-5.60;99.90
8928;DHT22;4499;48.304;11.902;2022-12-18T04:56:19;-5.60;99.90
8928;DHT22;4499;48.304;11.902;2022-12-18T04:58:48;-5.60;99.90
8928;DHT22;4499;48.304;11.902;2022-12-18T05:01:18;-5.60;99.90
8928;DHT22;4499;48.304;11.902;2022-12-18T05:03:47;-5.70;99.90
8928;DHT22;4499;48.304;11.902;2022-12-18T05:06:15;-5.60;99.90
8928;DHT22;4499;48.304;11.902;2022-12-18T05:08:43;-5.40;99.90
8928;DHT22;4499;48.304;11.902;2022-12-18T05:11:16;-5.60;99.90
8928;DHT22;4499;48.304;11.902;2022-12-18T05:13:44;-5.50;99.90
8928;DHT22;4499;48.304;11.902;2022-12-18T05:16:13;-5.70;99.90
8928;DHT22;4499;48.304;11.902;2022-12-18T05:18:43;-5.60;99.90
8928;DHT22;4499;48.304;11.902;2022-12-18T05:21:11;-5.50;99.90
8928;DHT22;4499;48.304;11.902;2022-12-18T05:23:39;-5.50;99.90
8928;DHT22;4499;48.304;11.902;2022-12-18T05:26:08;-5.60;99.90
8928;DHT22;4499;48.304;11.902;2022-12-18T05:28:40;-5.60;99.90
8928;DHT22;4499;48.304;11.902;2022-12-18T05:31:08;-5.50;99.90
8928;DHT22;4499;48.304;11.902;2022-12-18T05:33:37;-5.50;99.90
8928;DHT22;4499;48.304;11.902;2022-12-18T05:36:09;-5.50;99.90
8928;DHT22;4499;48.304;11.902;2022-12-18T05:38:39;-5.50;99.90
8928;DHT22;4499;48.304;11.902;2022-12-18T05:41:08;-5.30;99.90
8928;DHT22;4499;48.304;11.902;2022-12-18T05:43:37;-5.50;99.90
8928;DHT22;4499;48.304;11.902;2022-12-18T05:46:09;-5.50;99.90
8928;DHT22;4499;48.304;11.902;2022-12-18T05:48:39;-5.60;99.90
8928;DHT22;4499;48.304;11.902;2022-12-18T05:51:10;-5.60;99.90
8928;DHT22;4499;48.304;11.902;2022-12-18T05:53:38;-5.60;99.90
8928;DHT22;4499;48.304;11.902;2022-12-18T05:56:09;-5.60;99.90
8928;DHT22;4499;48.304;11.902;2022-12-18T05:58:37;-5.80;99.90
8928;DHT22;4499;48.304;11.902;2022-12-18T06:01:08;-5.80;99.90
8928;DHT22;4499;48.304;11.902;2022-12-18T06:03:36;-5.80;99.90
8928;DHT22;4499;48.304;11.902;2022-12-18T06:06:14;-5.90;99.90
8928;DHT22;4499;48.304;11.902;2022-12-18T06:08:43;-5.80;99.90
8928;DHT22;4499;48.304;11.902;2022-12-18T06:11:13;-5.90;99.90
8928;DHT22;4499;48.304;11.902;2022-12-18T06:13:44;-5.90;99.90
8928;DHT22;4499;48.304;11.902;2022-12-18T06:16:12;-6.00;99.90
8928;DHT22;4499;48.304;11.902;2022-12-18T06:18:40;-5.90;99.90
8928;DHT22;4499;48.304;11.902;2022-12-18T06:21:09;-5.90;99.90
8928;DHT22;4499;48.304;11.902;2022-12-18T06:23:38;-5.90;99.90
8928;DHT22;4499;48.304;11.902;2022-12-18T06:26:07;-5.90;99.90
8928;DHT22;4499;48.304;11.902;2022-12-18T06:28:36;-5.90;99.90
8928;DHT22;4499;48.304;11.902;2022-12-18T06:31:05;-5.90;99.90
8928;DHT22;4499;48.304;11.902;2022-12-18T06:33:33;-5.90;99.90
8928;DHT22;4499;48.304;11.902;2022-12-18T06:36:04;-5.80;99.90
8928;DHT22;4499;48.304;11.902;2022-12-18T06:38:32;-5.90;99.90
8928;DHT22;4499;48.304;11.902;2022-12-18T06:41:06;-5.80;99.90
8928;DHT22;4499;48.304;11.902;2022-12-18T06:43:34;-5.80;99.90
8928;DHT22;4499;48.304;11.902;2022-12-18T06:46:04;-5.80;99.90
8928;DHT22;4499;48.304;11.902;2022-12-18T06:48:33;-5.80;99.90
8928;DHT22;4499;48.304;11.902;2022-12-18T06:51:01;-5.80;99.90
8928;DHT22;4499;48.304;11.902;2022-12-18T06:53:29;-5.80;99.90
8928;DHT22;4499;48.304;11.902;2022-12-18T06:56:04;-5.80;99.90
8928;DHT22;4499;48.304;11.902;2022-12-18T06:58:36;-5.70;99.90
8928;DHT22;4499;48.304;11.902;2022-12-18T07:01:07;-5.70;99.90
8928;DHT22;4499;48.304;11.902;2022-12-18T07:03:36;-5.70;99.90
8928;DHT22;4499;48.304;11.902;2022-12-18T07:06:05;-5.70;99.90
8928;DHT22;4499;48.304;11.902;2022-12-18T07:08:34;-5.70;99.90
8928;DHT22;4499;48.304;11.902;2022-12-18T07:11:05;-5.70;99.90
8928;DHT22;4499;48.304;11.902;2022-12-18T07:13:33;-5.80;99.90
8928;DHT22;4499;48.304;11.902;2022-12-18T07:16:06;-5.80;99.90
8928;DHT22;4499;48.304;11.902;2022-12-18T07:18:44;-5.80;99.90
8928;DHT22;4499;48.304;11.902;2022-12-18T07:21:13;-5.80;99.90
8928;DHT22;4499;48.304;11.902;2022-12-18T07:23:42;-5.80;99.90
8928;DHT22;4499;48.304;11.902;2022-12-18T07:26:14;-5.80;99.90
8928;DHT22;4499;48.304;11.902;2022-12-18T07:28:42;-5.70;99.90
8928;DHT22;4499;48.304;11.902;2022-12-18T07:31:12;-5.70;99.90
8928;DHT22;4499;48.304;11.902;2022-12-18T07:33:41;-5.70;99.90
8928;DHT22;4499;48.304;11.902;2022-12-18T07:36:10;-5.70;99.90
8928;DHT22;4499;48.304;11.902;2022-12-18T07:38:38;-5.70;99.90
8928;DHT22;4499;48.304;11.902;2022-12-18T07:41:08;-5.70;99.90
8928;DHT22;4499;48.304;11.902;2022-12-18T07:43:39;-5.70;99.90
8928;DHT22;4499;48.304;11.902;2022-12-18T07:46:09;-5.70;99.90
8928;DHT22;4499;48.304;11.902;2022-12-18T07:48:40;-5.50;99.90
8928;DHT22;4499;48.304;11.902;2022-12-18T07:51:10;-5.70;99.90
8928;DHT22;4499;48.304;11.902;2022-12-18T07:53:39;-5.70;99.90
8928;DHT22;4499;48.304;11.902;2022-12-18T07:56:10;-5.70;99.90
8928;DHT22;4499;48.304;11.902;2022-12-18T07:58:58;-5.80;99.90
8928;DHT22;4499;48.304;11.902;2022-12-18T08:01:27;-5.80;99.90
8928;DHT22;4499;48.304;11.902;2022-12-18T08:03:56;-5.90;99.90
8928;DHT22;4499;48.304;11.902;2022-12-18T08:06:24;-5.90;99.90
8928;DHT22;4499;48.304;11.902;2022-12-18T08:08:53;-6.00;99.90
8928;DHT22;4499;48.304;11.902;2022-12-18T08:11:26;-6.00;99.90
8928;DHT22;4499;48.304;11.902;2022-12-18T08:13:55;-6.00;99.90
8928;DHT22;4499;48.304;11.902;2022-12-18T08:16:24;-5.90;99.90
8928;DHT22;4499;48.304;11.902;2022-12-18T08:18:53;-6.00;99.90
8928;DHT22;4499;48.304;11.902;2022-12-18T08:21:23;-6.00;99.90
8928;DHT22;4499;48.304;11.902;2022-12-18T08:23:53;-5.90;99.90
8928;DHT22;4499;48.304;11.902;2022-12-18T08:26:22;-5.90;99.90
8928;DHT22;4499;48.304;11.902;2022-12-18T08:28:50;-5.90;99.90
8928;DHT22;4499;48.304;11.902;2022-12-18T08:31:21;-6.00;99.90
8928;DHT22;4499;48.304;11.902;2022-12-18T08:33:52;-6.00;99.90
8928;DHT22;4499;48.304;11.902;2022-12-18T08:36:21;-5.90;99.90
8928;DHT22;4499;48.304;11.902;2022-12-18T08:38:51;-5.90;99.90
8928;DHT22;4499;48.304;11.902;2022-12-18T08:41:20;-5.60;99.90
8928;DHT22;4499;48.304;11.902;2022-12-18T08:43:48;-5.70;99.90
8928;DHT22;4499;48.304;11.902;2022-12-18T08:46:36;-5.50;99.90
8928;DHT22;4499;48.304;11.902;2022-12-18T08:49:07;-5.60;99.90
8928;DHT22;4499;48.304;11.902;2022-12-18T08:51:36;-5.70;99.90
8928;DHT22;4499;48.304;11.902;2022-12-18T08:54:05;-5.60;99.90
8928;DHT22;4499;48.304;11.902;2022-12-18T08:56:33;-5.50;99.90
8928;DHT22;4499;48.304;11.902;2022-12-18T08:59:04;-5.70;99.90
8928;DHT22;4499;48.304;11.902;2022-12-18T09:01:32;-5.70;99.90
8928;DHT22;4499;48.304;11.902;2022-12-18T09:04:01;-5.60;99.90
8928;DHT22;4499;48.304;11.902;2022-12-18T09:06:34;-5.60;99.90
8928;DHT22;4499;48.304;11.902;2022-12-18T09:09:04;-5.50;99.90
8928;DHT22;4499;48.304;11.902;2022-12-18T09:11:33;-5.40;99.90
8928;DHT22;4499;48.304;11.902;2022-12-18T09:14:01;-5.20;99.90
8928;DHT22;4499;48.304;11.902;2022-12-18T09:16:31;-5.20;99.90
8928;DHT22;4499;48.304;11.902;2022-12-18T09:19:02;-5.10;99.90
8928;DHT22;4499;48.304;11.902;2022-12-18T09:21:39;-4.90;99.90
8928;DHT22;4499;48.304;11.902;2022-12-18T09:24:14;-4.80;99.90
8928;DHT22;4499;48.304;11.902;2022-12-18T09:26:43;-4.80;99.90
8928;DHT22;4499;48.304;11.902;2022-12-18T09:29:13;-4.90;99.90
8928;DHT22;4499;48.304;11.902;2022-12-18T09:31:44;-4.90;99.90
8928;DHT22;4499;48.304;11.902;2022-12-18T09:34:12;-4.80;99.90
8928;DHT22;4499;48.304;11.902;2022-12-18T09:36:42;-4.90;99.90
8928;DHT22;4499;48.304;11.902;2022-12-18T09:39:10;-4.90;99.90
8928;DHT22;4499;48.304;11.902;2022-12-18T09:41:45;-4.90;99.90
8928;DHT22;4499;48.304;11.902;2022-12-18T09:44:20;-4.90;99.90
8928;DHT22;4499;48.304;11.902;2022-12-18T09:46:56;-4.90;99.90
8928;DHT22;4499;48.304;11.902;2022-12-18T09:49:30;-4.90;99.90
8928;DHT22;4499;48.304;11.902;2022-12-18T09:52:04;-4.80;99.90
8928;DHT22;4499;48.304;11.902;2022-12-18T09:54:39;-5.00;99.90
8928;DHT22;4499;48.304;11.902;2022-12-18T09:57:12;-5.00;99.90
8928;DHT22;4499;48.304;11.902;2022-12-18T09:59:41;-4.90;99.90
8928;DHT22;4499;48.304;11.902;2022-12-18T10:02:14;-4.70;99.90
8928;DHT22;4499;48.304;11.902;2022-12-18T10:04:43;-4.70;99.90
8928;DHT22;4499;48.304;11.902;2022-12-18T10:07:20;-4.70;99.90
8928;DHT22;4499;48.304;11.902;2022-12-18T10:09:57;-4.70;99.90
8928;DHT22;4499;48.304;11.902;2022-12-18T10:12:32;-4.50;99.90
8928;DHT22;4499;48.304;11.902;2022-12-18T10:15:08;-4.50;99.90
8928;DHT22;4499;48.304;11.902;2022-12-18T10:17:48;-4.50;99.90
8928;DHT22;4499;48.304;11.902;2022-12-18T10:20:24;-4.50;99.90
8928;DHT22;4499;48.304;11.902;2022-12-18T10:22:59;-4.40;99.90
8928;DHT22;4499;48.304;11.902;2022-12-18T10:25:36;-4.20;99.90
8928;DHT22;4499;48.304;11.902;2022-12-18T10:28:10;-4.10;99.90
8928;DHT22;4499;48.304;11.902;2022-12-18T10:30:41;-4.30;99.90
8928;DHT22;4499;48.304;11.902;2022-12-18T10:33:11;-4.30;99.90
8928;DHT22;4499;48.304;11.902;2022-12-18T10:35:43;-4.40;99.90
8928;DHT22;4499;48.304;11.902;2022-12-18T10:38:24;-4.30;99.90
8928;DHT22;4499;48.304;11.902;2022-12-18T10:40:55;-4.30;99.90
8928;DHT22;4499;48.304;11.902;2022-12-18T10:43:26;-4.30;99.90
8928;DHT22;4499;48.304;11.902;2022-12-18T10:46:00;-4.10;99.90
8928;DHT22;4499;48.304;11.902;2022-12-18T10:48:30;-4.10;99.90
8928;DHT22;4499;48.304;11.902;2022-12-18T10:51:00;-4.10;99.90
8928;DHT22;4499;48.304;11.902;2022-12-18T10:53:41;-4.10;99.90
8928;DHT22;4499;48.304;11.902;2022-12-18T10:56:10;-4.00;99.90
8928;DHT22;4499;48.304;11.902;2022-12-18T10:58:39;-3.90;99.90
8928;DHT22;4499;48.304;11.902;2022-12-18T11:01:10;-3.90;99.90
8928;DHT22;4499;48.304;11.902;2022-12-18T11:03:41;-3.80;99.90
8928;DHT22;4499;48.304;11.902;2022-12-18T11:06:11;-3.80;99.90
8928;DHT22;4499;48.304;11.902;2022-12-18T11:08:43;-3.80;99.90
8928;DHT22;4499;48.304;11.902;2022-12-18T11:11:19;-3.80;99.90
8928;DHT22;4499;48.304;11.902;2022-12-18T11:13:58;-3.80;99.90
8928;DHT22;4499;48.304;11.902;2022-12-18T11:16:28;-3.80;99.90
8928;DHT22;4499;48.304;11.902;2022-12-18T11:19:12;-3.80;99.90
8928;DHT22;4499;48.304;11.902;2022-12-18T11:21:41;-3.80;99.90
8928;DHT22;4499;48.304;11.902;2022-12-18T11:24:20;-3.70;99.90
8928;DHT22;4499;48.304;11.902;2022-12-18T11:26:50;-4.00;99.90
8928;DHT22;4499;48.304;11.902;2022-12-18T11:29:31;-3.80;99.90
8928;DHT22;4499;48.304;11.902;2022-12-18T11:32:31;-3.60;99.90
8928;DHT22;4499;48.304;11.902;2022-12-18T11:35:07;-3.70;99.90
8928;DHT22;4499;48.304;11.902;2022-12-18T11:37:39;-3.60;99.90
8928;DHT22;4499;48.304;11.902;2022-12-18T11:40:15;-3.70;99.90
8928;DHT22;4499;48.304;11.902;2022-12-18T11:42:48;-3.90;99.90
8928;DHT22;4499;48.304;11.902;2022-12-18T11:45:24;-3.80;99.90
8928;DHT22;4499;48.304;11.902;2022-12-18T11:47:58;-3.80;99.90
8928;DHT22;4499;48.304;11.902;2022-12-18T11:50:32;-3.80;99.90
8928;DHT22;4499;48.304;11.902;2022-12-18T11:53:04;-3.90;99.90
8928;DHT22;4499;48.304;11.902;2022-12-18T11:55:43;-4.00;99.90
8928;DHT22;4499;48.304;11.902;2022-12-18T11:58:24;-3.90;99.90
8928;DHT22;4499;48.304;11.902;2022-12-18T12:01:06;-3.90;99.90
8928;DHT22;4499;48.304;11.902;2022-12-18T12:03:52;-4.00;99.90
8928;DHT22;4499;48.304;11.902;2022-12-18T12:06:28;-3.90;99.90
8928;DHT22;4499;48.304;11.902;2022-12-18T12:09:08;-3.90;99.90
8928;DHT22;4499;48.304;11.902;2022-12-18T12:11:47;-3.90;99.90
8928;DHT22;4499;48.304;11.902;2022-12-18T12:14:29;-3.80;99.90
8928;DHT22;4499;48.304;11.902;2022-12-18T12:17:02;-3.80;99.90
8928;DHT22;4499;48.304;11.902;2022-12-18T12:19:41;-3.60;99.90
8928;DHT22;4499;48.304;11.902;2022-12-18T12:22:20;-3.80;99.90
8928;DHT22;4499;48.304;11.902;2022-12-18T12:24:59;-3.80;99.90
8928;DHT22;4499;48.304;11.902;2022-12-18T12:27:38;-3.90;99.90
8928;DHT22;4499;48.304;11.902;2022-12-18T12:30:14;-3.90;99.90
8928;DHT22;4499;48.304;11.902;2022-12-18T12:33:02;-3.80;99.90
8928;DHT22;4499;48.304;11.902;2022-12-18T12:35:43;-4.00;99.90
8928;DHT22;4499;48.304;11.902;2022-12-18T12:38:16;-3.90;99.90
8928;DHT22;4499;48.304;11.902;2022-12-18T12:40:56;-3.70;99.90
8928;DHT22;4499;48.304;11.902;2022-12-18T12:43:35;-3.70;99.90
8928;DHT22;4499;48.304;11.902;2022-12-18T12:46:12;-3.90;99.90
8928;DHT22;4499;48.304;11.902;2022-12-18T12:48:45;-3.90;99.90
8928;DHT22;4499;48.304;11.902;2022-12-18T12:51:18;-4.20;99.90
8928;DHT22;4499;48.304;11.902;2022-12-18T12:53:48;-4.20;99.90
8928;DHT22;4499;48.304;11.902;2022-12-18T12:56:17;-4.00;99.90
8928;DHT22;4499;48.304;11.902;2022-12-18T12:58:55;-4.00;99.90
8928;DHT22;4499;48.304;11.902;2022-12-18T13:01:33;-4.10;99.90
8928;DHT22;4499;48.304;11.902;2022-12-18T13:04:12;-4.20;99.90
8928;DHT22;4499;48.304;11.902;2022-12-18T13:06:50;-4.20;99.90
8928;DHT22;4499;48.304;11.902;2022-12-18T13:09:20;-4.30;99.90
8928;DHT22;4499;48.304;11.902;2022-12-18T13:11:48;-4.20;99.90
8928;DHT22;4499;48.304;11.902;2022-12-18T13:14:37;-4.30;99.90
8928;DHT22;4499;48.304;11.902;2022-12-18T13:17:16;-4.40;99.90
8928;DHT22;4499;48.304;11.902;2022-12-18T13:19:48;-4.40;99.90
8928;DHT22;4499;48.304;11.902;2022-12-18T13:22:22;-4.30;99.90
8928;DHT22;4499;48.304;11.902;2022-12-18T13:24:51;-4.40;99.90
8928;DHT22;4499;48.304;11.902;2022-12-18T13:27:56;-4.40;99.90
8928;DHT22;4499;48.304;11.902;2022-12-18T13:30:47;-4.30;99.90
8928;DHT22;4499;48.304;11.902;2022-12-18T13:33:41;-4.20;99.90
8928;DHT22;4499;48.304;11.902;2022-12-18T13:36:32;-4.00;99.90
8928;DHT22;4499;48.304;11.902;2022-12-18T13:42:35;-4.10;99.90
8928;DHT22;4499;48.304;11.902;2022-12-18T13:45:42;-4.10;99.90
8928;DHT22;4499;48.304;11.902;2022-12-18T13:48:22;-4.20;99.90
8928;DHT22;4499;48.304;11.902;2022-12-18T13:50:58;-4.10;99.90
8928;DHT22;4499;48.304;11.902;2022-12-18T13:53:32;-4.10;99.90
8928;DHT22;4499;48.304;11.902;2022-12-18T13:56:02;-4.20;99.90
8928;DHT22;4499;48.304;11.902;2022-12-18T13:58:30;-4.30;99.90
8928;DHT22;4499;48.304;11.902;2022-12-18T14:01:02;-4.30;99.90
8928;DHT22;4499;48.304;11.902;2022-12-18T14:03:31;-4.40;99.90
8928;DHT22;4499;48.304;11.902;2022-12-18T14:06:03;-4.40;99.90
8928;DHT22;4499;48.304;11.902;2022-12-18T14:08:38;-4.40;99.90
8928;DHT22;4499;48.304;11.902;2022-12-18T14:11:18;-4.50;99.90
8928;DHT22;4499;48.304;11.902;2022-12-18T14:13:48;-4.50;99.90
8928;DHT22;4499;48.304;11.902;2022-12-18T14:16:18;-4.60;99.90
8928;DHT22;4499;48.304;11.902;2022-12-18T14:18:48;-4.60;99.90
8928;DHT22;4499;48.304;11.902;2022-12-18T14:21:25;-4.50;99.90
8928;DHT22;4499;48.304;11.902;2022-12-18T14:24:12;-4.70;99.90
8928;DHT22;4499;48.304;11.902;2022-12-18T14:26:46;-4.80;99.90
8928;DHT22;4499;48.304;11.902;2022-12-18T14:29:23;-4.80;99.90
8928;DHT22;4499;48.304;11.902;2022-12-18T14:32:10;-4.70;99.90
8928;DHT22;4499;48.304;11.902;2022-12-18T14:34:44;-4.70;99.90
8928;DHT22;4499;48.304;11.902;2022-12-18T14:37:14;-4.60;99.90
8928;DHT22;4499;48.304;11.902;2022-12-18T14:39:54;-4.70;99.90
8928;DHT22;4499;48.304;11.902;2022-12-18T14:45:32;-4.80;99.90
8928;DHT22;4499;48.304;11.902;2022-12-18T14:48:15;-4.90;99.90
8928;DHT22;4499;48.304;11.902;2022-12-18T14:50:57;-5.00;99.90
8928;DHT22;4499;48.304;11.902;2022-12-18T14:53:37;-5.00;99.90
8928;DHT22;4499;48.304;11.902;2022-12-18T14:56:17;-5.10;99.90
8928;DHT22;4499;48.304;11.902;2022-12-18T14:58:49;-5.10;99.90
8928;DHT22;4499;48.304;11.902;2022-12-18T15:01:23;-5.20;99.90
8928;DHT22;4499;48.304;11.902;2022-12-18T15:03:54;-5.20;99.90
8928;DHT22;4499;48.304;11.902;2022-12-18T15:06:27;-5.20;99.90
8928;DHT22;4499;48.304;11.902;2022-12-18T15:08:57;-5.10;99.90
8928;DHT22;4499;48.304;11.902;2022-12-18T15:11:33;-5.30;99.90
8928;DHT22;4499;48.304;11.902;2022-12-18T15:14:30;-5.20;99.90
8928;DHT22;4499;48.304;11.902;2022-12-18T15:17:16;-5.20;99.90
8928;DHT22;4499;48.304;11.902;2022-12-18T15:19:48;-5.20;99.90
8928;DHT22;4499;48.304;11.902;2022-12-18T15:22:24;-5.30;99.90
8928;DHT22;4499;48.304;11.902;2022-12-18T15:24:54;-5.30;99.90
8928;DHT22;4499;48.304;11.902;2022-12-18T15:27:26;-5.20;99.90
8928;DHT22;4499;48.304;11.902;2022-12-18T15:30:03;-5.20;99.90
8928;DHT22;4499;48.304;11.902;2022-12-18T15:32:44;-5.30;99.90
8928;DHT22;4499;48.304;11.902;2022-12-18T15:35:17;-5.00;99.90
8928;DHT22;4499;48.304;11.902;2022-12-18T15:37:46;-5.20;99.90
8928;DHT22;4499;48.304;11.902;2022-12-18T15:40:15;-5.20;99.90
8928;DHT22;4499;48.304;11.902;2022-12-18T15:42:44;-5.30;99.90
8928;DHT22;4499;48.304;11.902;2022-12-18T15:45:31;-5.30;99.90
8928;DHT22;4499;48.304;11.902;2022-12-18T15:47:59;-5.30;99.90
8928;DHT22;4499;48.304;11.902;2022-12-18T15:50:31;-5.20;99.90
8928;DHT22;4499;48.304;11.902;2022-12-18T15:53:00;-5.30;99.90
8928;DHT22;4499;48.304;11.902;2022-12-18T15:55:29;-5.30;99.90
8928;DHT22;4499;48.304;11.902;2022-12-18T15:58:14;-5.30;99.90
8928;DHT22;4499;48.304;11.902;2022-12-18T16:00:42;-5.30;99.90
8928;DHT22;4499;48.304;11.902;2022-12-18T16:03:12;-5.30;99.90
8928;DHT22;4499;48.304;11.902;2022-12-18T16:05:42;-5.40;99.90
8928;DHT22;4499;48.304;11.902;2022-12-18T16:08:10;-5.40;99.90
8928;DHT22;4499;48.304;11.902;2022-12-18T16:10:38;-5.10;99.90
8928;DHT22;4499;48.304;11.902;2022-12-18T16:13:10;-5.40;99.90
8928;DHT22;4499;48.304;11.902;2022-12-18T16:15:39;-5.60;99.90
8928;DHT22;4499;48.304;11.902;2022-12-18T16:18:07;-5.50;99.90
8928;DHT22;4499;48.304;11.902;2022-12-18T16:20:35;-5.60;99.90
8928;DHT22;4499;48.304;11.902;2022-12-18T16:23:05;-5.50;99.90
8928;DHT22;4499;48.304;11.902;2022-12-18T16:25:33;-5.50;99.90